sensor_id;sensor_type;location;lat;lon;timestamp;P1;durP1;ratioP1;P2;durP2;ratioP2
67108;SDS011;54027;50.786;7.058;2023-05-29T00:01:18;11.98;;;4.68;;
67108;SDS011;54027;50.786;7.058;2023-05-29T00:03:44;9.18;;;4.35;;
67108;SDS011;54027;50.786;7.058;2023-05-29T00:06:09;9.15;;;4.68;;
67108;SDS011;54027;50.786;7.058;2023-05-29T00:08:35;9.68;;;4.40;;
67108;SDS011;54027;50.786;7.058;2023-05-29T00:11:01;10.40;;;4.40;;
67108;SDS011;54027;50.786;7.058;2023-05-29T00:13:26;9.25;;;4.18;;
67108;SDS011;54027;50.786;7.058;2023-05-29T00:15:52;8.10;;;3.97;;
67108;SDS011;54027;50.786;7.058;2023-05-29T00:18:17;7.32;;;3.78;;
67108;SDS011;54027;50.786;7.058;2023-05-29T00:20:43;7.85;;;3.83;;
67108;SDS011;54027;50.786;7.058;2023-05-29T00:23:08;7.95;;;4.05;;
67108;SDS011;54027;50.786;7.058;2023-05-29T00:25:35;11.15;;;4.30;;
67108;SDS011;54027;50.786;7.058;2023-05-29T00:28:00;8.50;;;4.72;;
67108;SDS011;54027;50.786;7.058;2023-05-29T00:30:25;8.38;;;4.43;;
67108;SDS011;54027;50.786;7.058;2023-05-29T00:32:51;8.55;;;4.57;;
67108;SDS011;54027;50.786;7.058;2023-05-29T00:35:19;6.75;;;3.95;;
67108;SDS011;54027;50.786;7.058;2023-05-29T00:37:45;10.15;;;4.32;;
67108;SDS011;54027;50.786;7.058;2023-05-29T00:40:10;9.85;;;4.65;;
67108;SDS011;54027;50.786;7.058;2023-05-29T00:42:36;7.50;;;3.97;;
67108;SDS011;54027;50.786;7.058;2023-05-29T00:45:02;9.40;;;4.75;;
67108;SDS011;54027;50.786;7.058;2023-05-29T00:47:28;8.57;;;4.68;;
67108;SDS011;54027;50.786;7.058;2023-05-29T00:49:53;11.18;;;4.13;;
67108;SDS011;54027;50.786;7.058;2023-05-29T00:52:21;8.63;;;4.28;;
67108;SDS011;54027;50.786;7.058;2023-05-29T00:54:46;9.55;;;3.88;;
67108;SDS011;54027;50.786;7.058;2023-05-29T00:57:12;8.63;;;3.90;;
67108;SDS011;54027;50.786;7.058;2023-05-29T00:59:39;8.38;;;4.18;;
67108;SDS011;54027;50.786;7.058;2023-05-29T01:02:06;10.45;;;4.65;;
67108;SDS011;54027;50.786;7.058;2023-05-29T01:04:31;9.68;;;4.40;;
67108;SDS011;54027;50.786;7.058;2023-05-29T01:07:01;9.65;;;4.47;;
67108;SDS011;54027;50.786;7.058;2023-05-29T01:09:27;10.27;;;4.35;;
67108;SDS011;54027;50.786;7.058;2023-05-29T01:11:59;9.57;;;4.15;;
67108;SDS011;54027;50.786;7.058;2023-05-29T01:14:48;10.17;;;4.40;;
67108;SDS011;54027;50.786;7.058;2023-05-29T01:23:12;8.00;;;4.03;;
67108;SDS011;54027;50.786;7.058;2023-05-29T01:25:50;8.52;;;4.05;;
67108;SDS011;54027;50.786;7.058;2023-05-29T01:28:21;7.07;;;4.18;;
67108;SDS011;54027;50.786;7.058;2023-05-29T01:30:51;9.05;;;4.53;;
67108;SDS011;54027;50.786;7.058;2023-05-29T01:33:19;7.05;;;3.92;;
67108;SDS011;54027;50.786;7.058;2023-05-29T01:35:44;11.90;;;4.60;;
67108;SDS011;54027;50.786;7.058;2023-05-29T01:38:10;10.85;;;4.82;;
67108;SDS011;54027;50.786;7.058;2023-05-29T01:40:35;9.38;;;4.38;;
67108;SDS011;54027;50.786;7.058;2023-05-29T01:43:01;9.95;;;4.65;;
67108;SDS011;54027;50.786;7.058;2023-05-29T01:45:27;8.25;;;4.43;;
67108;SDS011;54027;50.786;7.058;2023-05-29T01:47:54;10.93;;;4.45;;
67108;SDS011;54027;50.786;7.058;2023-05-29T01:50:19;9.50;;;4.55;;
67108;SDS011;54027;50.786;7.058;2023-05-29T01:52:47;8.98;;;4.68;;
67108;SDS011;54027;50.786;7.058;2023-05-29T01:55:12;8.05;;;4.43;;
67108;SDS011;54027;50.786;7.058;2023-05-29T01:57:38;10.30;;;4.57;;
67108;SDS011;54027;50.786;7.058;2023-05-29T02:00:05;14.55;;;5.28;;
67108;SDS011;54027;50.786;7.058;2023-05-29T02:02:40;8.85;;;4.28;;
67108;SDS011;54027;50.786;7.058;2023-05-29T02:05:06;13.02;;;4.82;;
67108;SDS011;54027;50.786;7.058;2023-05-29T02:07:33;12.27;;;4.88;;
67108;SDS011;54027;50.786;7.058;2023-05-29T02:10:04;8.00;;;4.20;;
67108;SDS011;54027;50.786;7.058;2023-05-29T02:12:30;10.48;;;4.22;;
67108;SDS011;54027;50.786;7.058;2023-05-29T02:14:55;7.47;;;4.30;;
67108;SDS011;54027;50.786;7.058;2023-05-29T02:17:21;9.43;;;4.15;;
67108;SDS011;54027;50.786;7.058;2023-05-29T02:19:47;11.20;;;4.90;;
67108;SDS011;54027;50.786;7.058;2023-05-29T02:22:13;10.45;;;4.55;;
67108;SDS011;54027;50.786;7.058;2023-05-29T02:24:38;12.02;;;4.40;;
67108;SDS011;54027;50.786;7.058;2023-05-29T02:27:03;8.13;;;4.53;;
67108;SDS011;54027;50.786;7.058;2023-05-29T02:29:29;12.30;;;4.28;;
67108;SDS011;54027;50.786;7.058;2023-05-29T02:31:54;9.90;;;4.20;;
67108;SDS011;54027;50.786;7.058;2023-05-29T02:34:20;10.35;;;4.38;;
67108;SDS011;54027;50.786;7.058;2023-05-29T02:36:48;7.43;;;4.03;;
67108;SDS011;54027;50.786;7.058;2023-05-29T02:39:14;9.82;;;4.55;;
67108;SDS011;54027;50.786;7.058;2023-05-29T02:41:40;5.55;;;3.88;;
67108;SDS011;54027;50.786;7.058;2023-05-29T02:44:05;8.63;;;3.95;;
67108;SDS011;54027;50.786;7.058;2023-05-29T02:46:31;6.88;;;3.95;;
67108;SDS011;54027;50.786;7.058;2023-05-29T02:48:56;7.35;;;4.05;;
67108;SDS011;54027;50.786;7.058;2023-05-29T02:51:21;11.57;;;4.63;;
67108;SDS011;54027;50.786;7.058;2023-05-29T02:53:47;8.63;;;3.70;;
67108;SDS011;54027;50.786;7.058;2023-05-29T02:56:13;5.90;;;4.30;;
67108;SDS011;54027;50.786;7.058;2023-05-29T02:58:40;9.30;;;4.18;;
67108;SDS011;54027;50.786;7.058;2023-05-29T03:01:06;6.82;;;4.07;;
67108;SDS011;54027;50.786;7.058;2023-05-29T03:03:32;8.45;;;4.45;;
67108;SDS011;54027;50.786;7.058;2023-05-29T03:05:57;8.48;;;3.88;;
67108;SDS011;54027;50.786;7.058;2023-05-29T03:08:22;11.63;;;4.15;;
67108;SDS011;54027;50.786;7.058;2023-05-29T03:10:49;7.65;;;4.15;;
67108;SDS011;54027;50.786;7.058;2023-05-29T03:13:14;9.93;;;4.05;;
67108;SDS011;54027;50.786;7.058;2023-05-29T03:15:39;8.07;;;4.05;;
67108;SDS011;54027;50.786;7.058;2023-05-29T03:18:05;8.13;;;4.47;;
67108;SDS011;54027;50.786;7.058;2023-05-29T03:20:30;11.77;;;4.18;;
67108;SDS011;54027;50.786;7.058;2023-05-29T03:22:55;9.32;;;4.03;;
67108;SDS011;54027;50.786;7.058;2023-05-29T03:25:21;8.25;;;4.05;;
67108;SDS011;54027;50.786;7.058;2023-05-29T03:27:47;12.13;;;4.35;;
67108;SDS011;54027;50.786;7.058;2023-05-29T03:30:12;7.50;;;4.07;;
67108;SDS011;54027;50.786;7.058;2023-05-29T03:32:38;9.05;;;4.72;;
67108;SDS011;54027;50.786;7.058;2023-05-29T03:35:03;8.55;;;3.80;;
67108;SDS011;54027;50.786;7.058;2023-05-29T03:37:29;8.55;;;4.10;;
67108;SDS011;54027;50.786;7.058;2023-05-29T03:39:55;7.93;;;4.35;;
67108;SDS011;54027;50.786;7.058;2023-05-29T03:42:20;12.20;;;4.43;;
67108;SDS011;54027;50.786;7.058;2023-05-29T03:44:46;8.25;;;3.88;;
67108;SDS011;54027;50.786;7.058;2023-05-29T03:47:11;8.45;;;4.40;;
67108;SDS011;54027;50.786;7.058;2023-05-29T03:49:37;6.72;;;3.92;;
67108;SDS011;54027;50.786;7.058;2023-05-29T03:52:03;10.52;;;4.78;;
67108;SDS011;54027;50.786;7.058;2023-05-29T03:54:28;8.65;;;3.90;;
67108;SDS011;54027;50.786;7.058;2023-05-29T03:56:54;6.25;;;4.15;;
67108;SDS011;54027;50.786;7.058;2023-05-29T03:59:19;8.35;;;3.72;;
67108;SDS011;54027;50.786;7.058;2023-05-29T04:01:45;11.13;;;4.35;;
67108;SDS011;54027;50.786;7.058;2023-05-29T04:04:10;7.68;;;4.10;;
67108;SDS011;54027;50.786;7.058;2023-05-29T04:06:36;9.88;;;4.18;;
67108;SDS011;54027;50.786;7.058;2023-05-29T04:09:04;8.73;;;4.40;;
67108;SDS011;54027;50.786;7.058;2023-05-29T04:11:31;14.73;;;5.03;;
67108;SDS011;54027;50.786;7.058;2023-05-29T04:14:00;7.80;;;4.18;;
67108;SDS011;54027;50.786;7.058;2023-05-29T04:16:27;14.15;;;4.75;;
67108;SDS011;54027;50.786;7.058;2023-05-29T04:18:53;8.25;;;4.03;;
67108;SDS011;54027;50.786;7.058;2023-05-29T04:21:19;13.30;;;4.10;;
67108;SDS011;54027;50.786;7.058;2023-05-29T04:23:44;10.02;;;4.07;;
67108;SDS011;54027;50.786;7.058;2023-05-29T04:26:10;12.05;;;4.55;;
67108;SDS011;54027;50.786;7.058;2023-05-29T04:28:35;8.43;;;3.83;;
67108;SDS011;54027;50.786;7.058;2023-05-29T04:31:02;7.78;;;4.10;;
67108;SDS011;54027;50.786;7.058;2023-05-29T04:33:28;10.20;;;4.32;;
67108;SDS011;54027;50.786;7.058;2023-05-29T04:35:54;9.60;;;4.38;;
67108;SDS011;54027;50.786;7.058;2023-05-29T04:38:20;7.95;;;3.83;;
67108;SDS011;54027;50.786;7.058;2023-05-29T04:40:50;9.75;;;4.63;;
67108;SDS011;54027;50.786;7.058;2023-05-29T04:43:16;10.85;;;4.63;;
67108;SDS011;54027;50.786;7.058;2023-05-29T04:45:41;8.02;;;4.13;;
67108;SDS011;54027;50.786;7.058;2023-05-29T04:48:07;16.58;;;4.95;;
67108;SDS011;54027;50.786;7.058;2023-05-29T04:50:33;12.18;;;4.95;;
67108;SDS011;54027;50.786;7.058;2023-05-29T04:53:00;14.15;;;4.57;;
67108;SDS011;54027;50.786;7.058;2023-05-29T04:55:26;12.05;;;4.78;;
67108;SDS011;54027;50.786;7.058;2023-05-29T04:57:52;11.32;;;4.93;;
67108;SDS011;54027;50.786;7.058;2023-05-29T05:00:18;12.20;;;4.97;;
67108;SDS011;54027;50.786;7.058;2023-05-29T05:02:44;10.90;;;4.85;;
67108;SDS011;54027;50.786;7.058;2023-05-29T05:05:10;9.77;;;4.70;;
67108;SDS011;54027;50.786;7.058;2023-05-29T05:07:35;11.38;;;4.60;;
67108;SDS011;54027;50.786;7.058;2023-05-29T05:10:02;10.93;;;4.75;;
67108;SDS011;54027;50.786;7.058;2023-05-29T05:12:28;9.32;;;4.90;;
67108;SDS011;54027;50.786;7.058;2023-05-29T05:14:53;13.50;;;6.05;;
67108;SDS011;54027;50.786;7.058;2023-05-29T05:17:19;9.98;;;4.53;;
67108;SDS011;54027;50.786;7.058;2023-05-29T05:19:45;15.88;;;4.82;;
67108;SDS011;54027;50.786;7.058;2023-05-29T05:22:10;13.02;;;5.28;;
67108;SDS011;54027;50.786;7.058;2023-05-29T05:24:36;12.52;;;5.32;;
67108;SDS011;54027;50.786;7.058;2023-05-29T05:27:01;13.80;;;5.00;;
67108;SDS011;54027;50.786;7.058;2023-05-29T05:29:27;9.80;;;5.65;;
67108;SDS011;54027;50.786;7.058;2023-05-29T05:31:52;11.68;;;5.50;;
67108;SDS011;54027;50.786;7.058;2023-05-29T05:34:17;13.23;;;4.82;;
67108;SDS011;54027;50.786;7.058;2023-05-29T05:36:43;10.35;;;4.55;;
67108;SDS011;54027;50.786;7.058;2023-05-29T05:39:08;12.57;;;5.50;;
67108;SDS011;54027;50.786;7.058;2023-05-29T05:41:34;12.35;;;4.63;;
67108;SDS011;54027;50.786;7.058;2023-05-29T05:44:00;14.35;;;5.03;;
67108;SDS011;54027;50.786;7.058;2023-05-29T05:46:26;15.32;;;5.45;;
67108;SDS011;54027;50.786;7.058;2023-05-29T05:48:51;11.18;;;4.90;;
67108;SDS011;54027;50.786;7.058;2023-05-29T05:51:16;15.25;;;6.00;;
67108;SDS011;54027;50.786;7.058;2023-05-29T05:53:42;10.68;;;5.32;;
67108;SDS011;54027;50.786;7.058;2023-05-29T05:56:08;13.18;;;5.47;;
67108;SDS011;54027;50.786;7.058;2023-05-29T05:58:33;17.08;;;6.07;;
67108;SDS011;54027;50.786;7.058;2023-05-29T06:00:59;12.45;;;5.45;;
67108;SDS011;54027;50.786;7.058;2023-05-29T06:03:26;18.05;;;5.57;;
67108;SDS011;54027;50.786;7.058;2023-05-29T06:05:51;15.77;;;6.03;;
67108;SDS011;54027;50.786;7.058;2023-05-29T06:08:19;9.82;;;4.65;;
67108;SDS011;54027;50.786;7.058;2023-05-29T06:10:44;12.65;;;5.18;;
67108;SDS011;54027;50.786;7.058;2023-05-29T06:13:10;15.65;;;6.03;;
67108;SDS011;54027;50.786;7.058;2023-05-29T06:15:35;14.00;;;5.10;;
67108;SDS011;54027;50.786;7.058;2023-05-29T06:18:00;15.57;;;5.30;;
67108;SDS011;54027;50.786;7.058;2023-05-29T06:20:26;12.77;;;5.88;;
67108;SDS011;54027;50.786;7.058;2023-05-29T06:22:51;14.57;;;5.72;;
67108;SDS011;54027;50.786;7.058;2023-05-29T06:25:17;14.43;;;5.38;;
67108;SDS011;54027;50.786;7.058;2023-05-29T06:27:44;11.77;;;5.38;;
67108;SDS011;54027;50.786;7.058;2023-05-29T06:30:10;15.10;;;5.57;;
67108;SDS011;54027;50.786;7.058;2023-05-29T06:32:36;17.48;;;6.43;;
67108;SDS011;54027;50.786;7.058;2023-05-29T06:35:02;15.80;;;6.30;;
67108;SDS011;54027;50.786;7.058;2023-05-29T06:37:27;15.00;;;5.70;;
67108;SDS011;54027;50.786;7.058;2023-05-29T06:39:52;12.35;;;5.00;;
67108;SDS011;54027;50.786;7.058;2023-05-29T06:42:18;12.48;;;5.35;;
67108;SDS011;54027;50.786;7.058;2023-05-29T06:44:43;13.40;;;5.50;;
67108;SDS011;54027;50.786;7.058;2023-05-29T06:47:08;17.17;;;6.38;;
67108;SDS011;54027;50.786;7.058;2023-05-29T06:49:34;10.95;;;5.57;;
67108;SDS011;54027;50.786;7.058;2023-05-29T06:51:59;14.98;;;5.75;;
67108;SDS011;54027;50.786;7.058;2023-05-29T06:54:25;12.13;;;5.45;;
67108;SDS011;54027;50.786;7.058;2023-05-29T06:56:50;9.20;;;4.72;;
67108;SDS011;54027;50.786;7.058;2023-05-29T06:59:16;13.57;;;6.13;;
67108;SDS011;54027;50.786;7.058;2023-05-29T07:01:41;16.75;;;5.68;;
67108;SDS011;54027;50.786;7.058;2023-05-29T07:04:06;13.38;;;6.43;;
67108;SDS011;54027;50.786;7.058;2023-05-29T07:06:32;10.40;;;5.57;;
67108;SDS011;54027;50.786;7.058;2023-05-29T07:08:58;14.98;;;5.78;;
67108;SDS011;54027;50.786;7.058;2023-05-29T07:11:24;11.70;;;6.00;;
67108;SDS011;54027;50.786;7.058;2023-05-29T07:13:51;14.52;;;5.53;;
67108;SDS011;54027;50.786;7.058;2023-05-29T07:16:18;19.30;;;6.90;;
67108;SDS011;54027;50.786;7.058;2023-05-29T07:18:43;14.77;;;5.90;;
67108;SDS011;54027;50.786;7.058;2023-05-29T07:21:09;13.40;;;5.38;;
67108;SDS011;54027;50.786;7.058;2023-05-29T07:23:35;17.13;;;6.35;;
67108;SDS011;54027;50.786;7.058;2023-05-29T07:26:01;14.35;;;5.50;;
67108;SDS011;54027;50.786;7.058;2023-05-29T07:28:26;17.95;;;6.32;;
67108;SDS011;54027;50.786;7.058;2023-05-29T07:30:51;12.73;;;5.72;;
67108;SDS011;54027;50.786;7.058;2023-05-29T07:33:17;14.43;;;5.70;;
67108;SDS011;54027;50.786;7.058;2023-05-29T07:35:42;13.40;;;5.70;;
67108;SDS011;54027;50.786;7.058;2023-05-29T07:38:07;15.80;;;5.55;;
67108;SDS011;54027;50.786;7.058;2023-05-29T07:40:33;10.02;;;5.38;;
67108;SDS011;54027;50.786;7.058;2023-05-29T07:42:58;17.70;;;6.13;;
67108;SDS011;54027;50.786;7.058;2023-05-29T07:45:24;11.48;;;5.22;;
67108;SDS011;54027;50.786;7.058;2023-05-29T07:47:49;13.52;;;5.85;;
67108;SDS011;54027;50.786;7.058;2023-05-29T07:50:15;17.58;;;6.10;;
67108;SDS011;54027;50.786;7.058;2023-05-29T07:52:41;14.15;;;5.95;;
67108;SDS011;54027;50.786;7.058;2023-05-29T07:55:09;15.32;;;5.13;;
67108;SDS011;54027;50.786;7.058;2023-05-29T07:57:34;11.05;;;5.13;;
67108;SDS011;54027;50.786;7.058;2023-05-29T08:00:00;16.02;;;6.22;;
67108;SDS011;54027;50.786;7.058;2023-05-29T08:02:26;14.68;;;5.47;;
67108;SDS011;54027;50.786;7.058;2023-05-29T08:04:52;17.30;;;5.18;;
67108;SDS011;54027;50.786;7.058;2023-05-29T08:07:17;14.60;;;5.32;;
67108;SDS011;54027;50.786;7.058;2023-05-29T08:09:42;15.02;;;5.65;;
67108;SDS011;54027;50.786;7.058;2023-05-29T08:12:08;15.40;;;5.57;;
67108;SDS011;54027;50.786;7.058;2023-05-29T08:14:33;13.45;;;5.50;;
67108;SDS011;54027;50.786;7.058;2023-05-29T08:16:58;15.27;;;5.00;;
67108;SDS011;54027;50.786;7.058;2023-05-29T08:19:24;12.82;;;5.50;;
67108;SDS011;54027;50.786;7.058;2023-05-29T08:21:50;14.27;;;5.22;;
67108;SDS011;54027;50.786;7.058;2023-05-29T08:24:15;13.27;;;5.07;;
67108;SDS011;54027;50.786;7.058;2023-05-29T08:26:40;12.45;;;4.82;;
67108;SDS011;54027;50.786;7.058;2023-05-29T08:29:06;13.90;;;5.38;;
67108;SDS011;54027;50.786;7.058;2023-05-29T08:31:31;11.00;;;5.03;;
67108;SDS011;54027;50.786;7.058;2023-05-29T08:33:57;12.43;;;4.97;;
67108;SDS011;54027;50.786;7.058;2023-05-29T08:36:22;13.95;;;4.72;;
67108;SDS011;54027;50.786;7.058;2023-05-29T08:38:48;13.88;;;4.93;;
67108;SDS011;54027;50.786;7.058;2023-05-29T08:41:19;10.25;;;4.18;;
67108;SDS011;54027;50.786;7.058;2023-05-29T08:43:49;13.48;;;4.50;;
67108;SDS011;54027;50.786;7.058;2023-05-29T08:46:15;14.55;;;4.18;;
67108;SDS011;54027;50.786;7.058;2023-05-29T08:48:44;15.07;;;4.28;;
67108;SDS011;54027;50.786;7.058;2023-05-29T08:51:13;14.77;;;4.43;;
67108;SDS011;54027;50.786;7.058;2023-05-29T08:53:39;13.68;;;4.30;;
67108;SDS011;54027;50.786;7.058;2023-05-29T08:56:05;13.57;;;4.35;;
67108;SDS011;54027;50.786;7.058;2023-05-29T08:58:31;10.10;;;4.40;;
67108;SDS011;54027;50.786;7.058;2023-05-29T09:00:57;13.50;;;4.55;;
67108;SDS011;54027;50.786;7.058;2023-05-29T09:03:22;11.40;;;4.03;;
67108;SDS011;54027;50.786;7.058;2023-05-29T09:05:48;14.70;;;4.35;;
67108;SDS011;54027;50.786;7.058;2023-05-29T09:08:13;11.75;;;4.15;;
67108;SDS011;54027;50.786;7.058;2023-05-29T09:10:43;11.98;;;4.63;;
67108;SDS011;54027;50.786;7.058;2023-05-29T09:13:10;10.82;;;4.65;;
67108;SDS011;54027;50.786;7.058;2023-05-29T09:15:36;11.65;;;4.65;;
67108;SDS011;54027;50.786;7.058;2023-05-29T09:18:05;10.68;;;5.13;;
67108;SDS011;54027;50.786;7.058;2023-05-29T09:20:32;16.20;;;4.78;;
67108;SDS011;54027;50.786;7.058;2023-05-29T09:25:25;11.70;;;4.70;;
67108;SDS011;54027;50.786;7.058;2023-05-29T09:27:56;15.40;;;5.00;;
67108;SDS011;54027;50.786;7.058;2023-05-29T09:30:31;11.57;;;3.80;;
67108;SDS011;54027;50.786;7.058;2023-05-29T09:33:09;15.80;;;4.68;;
67108;SDS011;54027;50.786;7.058;2023-05-29T09:35:42;13.77;;;4.47;;
67108;SDS011;54027;50.786;7.058;2023-05-29T09:38:10;12.63;;;4.93;;
67108;SDS011;54027;50.786;7.058;2023-05-29T09:40:37;11.50;;;4.55;;
67108;SDS011;54027;50.786;7.058;2023-05-29T09:43:14;13.43;;;4.45;;
67108;SDS011;54027;50.786;7.058;2023-05-29T09:45:45;14.65;;;4.10;;
67108;SDS011;54027;50.786;7.058;2023-05-29T09:48:14;12.60;;;4.28;;
67108;SDS011;54027;50.786;7.058;2023-05-29T09:50:40;14.30;;;4.47;;
67108;SDS011;54027;50.786;7.058;2023-05-29T09:55:46;11.57;;;4.05;;
67108;SDS011;54027;50.786;7.058;2023-05-29T09:58:13;9.63;;;3.88;;
67108;SDS011;54027;50.786;7.058;2023-05-29T10:00:39;12.43;;;4.30;;
67108;SDS011;54027;50.786;7.058;2023-05-29T10:03:06;11.00;;;4.03;;
67108;SDS011;54027;50.786;7.058;2023-05-29T10:05:31;12.18;;;4.07;;
67108;SDS011;54027;50.786;7.058;2023-05-29T10:07:57;11.75;;;4.63;;
67108;SDS011;54027;50.786;7.058;2023-05-29T10:10:26;10.10;;;4.00;;
67108;SDS011;54027;50.786;7.058;2023-05-29T10:12:53;12.77;;;3.83;;
67108;SDS011;54027;50.786;7.058;2023-05-29T10:15:18;14.07;;;4.85;;
67108;SDS011;54027;50.786;7.058;2023-05-29T10:18:03;7.78;;;3.67;;
67108;SDS011;54027;50.786;7.058;2023-05-29T10:20:29;13.13;;;3.80;;
67108;SDS011;54027;50.786;7.058;2023-05-29T10:22:59;9.68;;;3.72;;
67108;SDS011;54027;50.786;7.058;2023-05-29T10:25:27;14.30;;;4.13;;
67108;SDS011;54027;50.786;7.058;2023-05-29T10:27:55;11.05;;;3.97;;
67108;SDS011;54027;50.786;7.058;2023-05-29T10:33:29;13.57;;;4.57;;
67108;SDS011;54027;50.786;7.058;2023-05-29T10:36:14;8.50;;;3.40;;
67108;SDS011;54027;50.786;7.058;2023-05-29T10:38:46;8.80;;;3.85;;
67108;SDS011;54027;50.786;7.058;2023-05-29T10:44:02;11.30;;;3.15;;
67108;SDS011;54027;50.786;7.058;2023-05-29T10:49:15;13.95;;;4.20;;
67108;SDS011;54027;50.786;7.058;2023-05-29T10:51:41;12.30;;;3.80;;
67108;SDS011;54027;50.786;7.058;2023-05-29T10:54:07;12.45;;;4.28;;
67108;SDS011;54027;50.786;7.058;2023-05-29T10:56:32;12.05;;;3.72;;
67108;SDS011;54027;50.786;7.058;2023-05-29T10:58:58;9.30;;;3.45;;
67108;SDS011;54027;50.786;7.058;2023-05-29T11:01:27;10.27;;;3.97;;
67108;SDS011;54027;50.786;7.058;2023-05-29T11:06:41;13.25;;;4.15;;
67108;SDS011;54027;50.786;7.058;2023-05-29T11:09:07;14.50;;;4.28;;
67108;SDS011;54027;50.786;7.058;2023-05-29T11:14:48;9.07;;;3.50;;
67108;SDS011;54027;50.786;7.058;2023-05-29T11:17:28;15.05;;;4.25;;
67108;SDS011;54027;50.786;7.058;2023-05-29T11:20:00;11.32;;;3.45;;
67108;SDS011;54027;50.786;7.058;2023-05-29T11:22:30;10.35;;;3.55;;
67108;SDS011;54027;50.786;7.058;2023-05-29T11:25:11;11.85;;;3.50;;
67108;SDS011;54027;50.786;7.058;2023-05-29T11:27:38;9.10;;;3.60;;
67108;SDS011;54027;50.786;7.058;2023-05-29T11:30:04;13.10;;;4.47;;
67108;SDS011;54027;50.786;7.058;2023-05-29T11:32:30;12.32;;;3.88;;
67108;SDS011;54027;50.786;7.058;2023-05-29T11:35:02;10.50;;;3.92;;
67108;SDS011;54027;50.786;7.058;2023-05-29T11:37:32;10.18;;;3.92;;
67108;SDS011;54027;50.786;7.058;2023-05-29T11:39:58;10.23;;;3.47;;
67108;SDS011;54027;50.786;7.058;2023-05-29T11:42:23;16.10;;;3.85;;
67108;SDS011;54027;50.786;7.058;2023-05-29T11:44:49;12.35;;;3.75;;
67108;SDS011;54027;50.786;7.058;2023-05-29T11:47:14;10.05;;;3.85;;
67108;SDS011;54027;50.786;7.058;2023-05-29T11:49:40;9.27;;;3.67;;
67108;SDS011;54027;50.786;7.058;2023-05-29T11:52:14;10.88;;;3.88;;
67108;SDS011;54027;50.786;7.058;2023-05-29T11:54:41;8.57;;;3.40;;
67108;SDS011;54027;50.786;7.058;2023-05-29T11:57:17;9.35;;;3.50;;
67108;SDS011;54027;50.786;7.058;2023-05-29T11:59:46;11.95;;;3.70;;
67108;SDS011;54027;50.786;7.058;2023-05-29T12:02:12;7.90;;;3.13;;
67108;SDS011;54027;50.786;7.058;2023-05-29T12:04:39;12.32;;;4.40;;
67108;SDS011;54027;50.786;7.058;2023-05-29T12:07:19;7.97;;;3.10;;
67108;SDS011;54027;50.786;7.058;2023-05-29T12:09:45;9.00;;;3.60;;
67108;SDS011;54027;50.786;7.058;2023-05-29T12:12:10;7.35;;;3.55;;
67108;SDS011;54027;50.786;7.058;2023-05-29T12:14:36;10.75;;;3.58;;
67108;SDS011;54027;50.786;7.058;2023-05-29T12:17:01;11.48;;;3.58;;
67108;SDS011;54027;50.786;7.058;2023-05-29T12:19:27;10.05;;;3.53;;
67108;SDS011;54027;50.786;7.058;2023-05-29T12:21:53;11.55;;;3.85;;
67108;SDS011;54027;50.786;7.058;2023-05-29T12:24:18;9.50;;;3.92;;
67108;SDS011;54027;50.786;7.058;2023-05-29T12:26:44;10.75;;;3.88;;
67108;SDS011;54027;50.786;7.058;2023-05-29T12:29:12;9.68;;;3.85;;
67108;SDS011;54027;50.786;7.058;2023-05-29T12:31:37;10.77;;;3.78;;
67108;SDS011;54027;50.786;7.058;2023-05-29T12:34:07;13.93;;;4.03;;
67108;SDS011;54027;50.786;7.058;2023-05-29T12:36:35;10.88;;;3.83;;
67108;SDS011;54027;50.786;7.058;2023-05-29T12:39:04;9.68;;;3.83;;
67108;SDS011;54027;50.786;7.058;2023-05-29T12:41:34;8.65;;;3.80;;
67108;SDS011;54027;50.786;7.058;2023-05-29T12:44:02;8.63;;;3.30;;
67108;SDS011;54027;50.786;7.058;2023-05-29T12:46:34;7.68;;;3.58;;
67108;SDS011;54027;50.786;7.058;2023-05-29T12:49:11;9.40;;;3.63;;
67108;SDS011;54027;50.786;7.058;2023-05-29T12:51:43;10.45;;;3.78;;
67108;SDS011;54027;50.786;7.058;2023-05-29T12:54:12;11.35;;;4.03;;
67108;SDS011;54027;50.786;7.058;2023-05-29T12:56:39;9.88;;;3.40;;
67108;SDS011;54027;50.786;7.058;2023-05-29T12:59:06;9.95;;;3.97;;
67108;SDS011;54027;50.786;7.058;2023-05-29T13:01:32;8.60;;;3.63;;
67108;SDS011;54027;50.786;7.058;2023-05-29T13:03:57;11.52;;;3.65;;
67108;SDS011;54027;50.786;7.058;2023-05-29T13:06:23;8.63;;;3.28;;
67108;SDS011;54027;50.786;7.058;2023-05-29T13:08:48;10.82;;;3.30;;
67108;SDS011;54027;50.786;7.058;2023-05-29T13:11:14;13.63;;;3.65;;
67108;SDS011;54027;50.786;7.058;2023-05-29T13:13:39;10.35;;;4.03;;
67108;SDS011;54027;50.786;7.058;2023-05-29T13:16:05;9.45;;;3.97;;
67108;SDS011;54027;50.786;7.058;2023-05-29T13:18:30;12.13;;;3.40;;
67108;SDS011;54027;50.786;7.058;2023-05-29T13:20:56;7.35;;;3.53;;
67108;SDS011;54027;50.786;7.058;2023-05-29T13:23:21;12.55;;;3.63;;
67108;SDS011;54027;50.786;7.058;2023-05-29T13:25:47;10.23;;;3.72;;
67108;SDS011;54027;50.786;7.058;2023-05-29T13:28:14;8.75;;;3.53;;
67108;SDS011;54027;50.786;7.058;2023-05-29T13:30:40;8.43;;;3.40;;
67108;SDS011;54027;50.786;7.058;2023-05-29T13:33:06;8.15;;;3.60;;
67108;SDS011;54027;50.786;7.058;2023-05-29T13:35:31;7.68;;;3.55;;
67108;SDS011;54027;50.786;7.058;2023-05-29T13:37:56;8.32;;;4.00;;
67108;SDS011;54027;50.786;7.058;2023-05-29T13:40:22;10.57;;;3.50;;
67108;SDS011;54027;50.786;7.058;2023-05-29T13:42:47;14.32;;;3.63;;
67108;SDS011;54027;50.786;7.058;2023-05-29T13:45:12;12.75;;;3.65;;
67108;SDS011;54027;50.786;7.058;2023-05-29T13:47:39;8.45;;;3.25;;
67108;SDS011;54027;50.786;7.058;2023-05-29T13:50:04;8.07;;;3.30;;
67108;SDS011;54027;50.786;7.058;2023-05-29T13:52:31;8.57;;;3.00;;
67108;SDS011;54027;50.786;7.058;2023-05-29T13:54:57;9.68;;;3.58;;
67108;SDS011;54027;50.786;7.058;2023-05-29T13:57:25;9.40;;;3.42;;
67108;SDS011;54027;50.786;7.058;2023-05-29T13:59:50;10.40;;;3.63;;
67108;SDS011;54027;50.786;7.058;2023-05-29T14:02:16;14.23;;;3.40;;
67108;SDS011;54027;50.786;7.058;2023-05-29T14:04:41;12.85;;;3.63;;
67108;SDS011;54027;50.786;7.058;2023-05-29T14:07:08;14.30;;;2.92;;
67108;SDS011;54027;50.786;7.058;2023-05-29T14:09:33;10.57;;;3.17;;
67108;SDS011;54027;50.786;7.058;2023-05-29T14:11:59;8.68;;;3.28;;
67108;SDS011;54027;50.786;7.058;2023-05-29T14:14:25;8.50;;;3.20;;
67108;SDS011;54027;50.786;7.058;2023-05-29T14:16:52;9.27;;;3.53;;
67108;SDS011;54027;50.786;7.058;2023-05-29T14:19:18;8.25;;;2.70;;
67108;SDS011;54027;50.786;7.058;2023-05-29T14:21:44;10.93;;;3.20;;
67108;SDS011;54027;50.786;7.058;2023-05-29T14:24:10;7.88;;;3.13;;
67108;SDS011;54027;50.786;7.058;2023-05-29T14:26:35;11.52;;;3.55;;
67108;SDS011;54027;50.786;7.058;2023-05-29T14:29:01;7.10;;;3.40;;
67108;SDS011;54027;50.786;7.058;2023-05-29T14:31:27;12.35;;;3.95;;
67108;SDS011;54027;50.786;7.058;2023-05-29T14:33:53;11.48;;;3.63;;
67108;SDS011;54027;50.786;7.058;2023-05-29T14:36:18;8.25;;;3.33;;
67108;SDS011;54027;50.786;7.058;2023-05-29T14:38:43;11.10;;;3.60;;
67108;SDS011;54027;50.786;7.058;2023-05-29T14:41:11;6.50;;;2.95;;
67108;SDS011;54027;50.786;7.058;2023-05-29T14:43:37;8.48;;;3.33;;
67108;SDS011;54027;50.786;7.058;2023-05-29T14:46:06;10.77;;;3.35;;
67108;SDS011;54027;50.786;7.058;2023-05-29T14:48:31;9.25;;;3.63;;
67108;SDS011;54027;50.786;7.058;2023-05-29T14:50:56;9.85;;;3.17;;
67108;SDS011;54027;50.786;7.058;2023-05-29T14:53:22;8.10;;;3.28;;
67108;SDS011;54027;50.786;7.058;2023-05-29T14:55:48;10.05;;;3.33;;
67108;SDS011;54027;50.786;7.058;2023-05-29T14:58:14;8.55;;;3.38;;
67108;SDS011;54027;50.786;7.058;2023-05-29T15:00:39;7.28;;;3.40;;
67108;SDS011;54027;50.786;7.058;2023-05-29T15:03:04;6.57;;;3.17;;